createdAt,value
2023-03-01T00:01:08.924Z,3.85
2023-03-01T00:03:36.365Z,3.67
2023-03-01T00:06:04.914Z,4.05
2023-03-01T00:08:33.835Z,4.72
2023-03-01T00:11:15.166Z,4.32
2023-03-01T00:13:42.992Z,4.65
2023-03-01T00:16:14.080Z,4.63
2023-03-01T00:18:41.092Z,4.22
2023-03-01T00:21:07.939Z,5.75
2023-03-01T00:23:37.940Z,5.03
2023-03-01T00:26:08.543Z,4.25
2023-03-01T00:28:35.725Z,4.72
2023-03-01T00:31:06.275Z,4.10
2023-03-01T00:33:33.252Z,5.05
2023-03-01T00:36:00.725Z,4.68
2023-03-01T00:38:28.376Z,4.28
2023-03-01T00:40:55.052Z,5.57
2023-03-01T00:43:21.913Z,4.38
2023-03-01T00:45:48.517Z,4.38
2023-03-01T00:48:15.095Z,5.82
2023-03-01T00:50:41.671Z,5.00
2023-03-01T00:53:08.297Z,4.80
2023-03-01T00:55:34.902Z,3.75
2023-03-01T00:58:01.786Z,3.78
2023-03-01T01:00:29.403Z,3.80
2023-03-01T01:02:55.996Z,4.93
2023-03-01T01:05:22.851Z,4.88
2023-03-01T01:07:49.609Z,4.90
2023-03-01T01:10:18.002Z,4.18
2023-03-01T01:12:47.868Z,4.15
2023-03-01T01:15:17.507Z,4.20
2023-03-01T01:17:44.359Z,4.45
2023-03-01T01:20:11.679Z,5.07
2023-03-01T01:22:39.661Z,5.25
2023-03-01T01:25:06.558Z,4.68
2023-03-01T01:27:33.265Z,4.53
2023-03-01T01:29:59.849Z,4.90
2023-03-01T01:32:27.351Z,5.03
2023-03-01T01:34:54.135Z,4.50
2023-03-01T01:37:20.935Z,5.00
2023-03-01T01:39:47.533Z,5.00
2023-03-01T01:42:18.927Z,4.50
2023-03-01T01:44:49.015Z,4.50
2023-03-01T01:47:23.391Z,5.32
2023-03-01T01:49:53.972Z,4.65
2023-03-01T01:52:39.041Z,3.97
2023-03-01T01:55:15.909Z,4.60
2023-03-01T01:57:54.126Z,5.38
2023-03-01T02:00:26.992Z,5.20
2023-03-01T02:03:05.796Z,3.55
2023-03-01T02:05:55.249Z,5.60
2023-03-01T02:08:26.193Z,4.85
2023-03-01T02:10:53.788Z,5.35
2023-03-01T02:13:20.476Z,4.68
2023-03-01T02:15:47.222Z,5.07
2023-03-01T02:18:18.259Z,4.85
2023-03-01T02:20:53.803Z,5.10
2023-03-01T02:23:21.274Z,4.32
2023-03-01T02:25:57.457Z,4.60
2023-03-01T02:28:27.902Z,5.22
2023-03-01T02:31:13.305Z,4.88
2023-03-01T02:33:40.683Z,4.22
2023-03-01T02:36:29.561Z,4.00
2023-03-01T02:41:27.803Z,4.80
2023-03-01T02:46:24.167Z,5.00
2023-03-01T02:48:54.181Z,4.57
2023-03-01T02:51:35.997Z,4.05
2023-03-01T02:54:27.572Z,4.70
2023-03-01T02:56:54.430Z,5.07
2023-03-01T02:59:25.746Z,5.93
2023-03-01T03:01:52.347Z,5.03
2023-03-01T03:04:21.905Z,4.47
2023-03-01T03:06:50.816Z,5.10
2023-03-01T03:09:18.159Z,4.22
2023-03-01T03:11:45.086Z,5.07
2023-03-01T03:14:13.624Z,5.30
2023-03-01T03:16:50.793Z,4.00
2023-03-01T03:19:19.403Z,4.72
2023-03-01T03:21:46.862Z,6.25
2023-03-01T03:24:13.692Z,5.47
2023-03-01T03:26:40.290Z,5.78
2023-03-01T03:29:06.894Z,4.85
2023-03-01T03:31:34.714Z,6.35
2023-03-01T03:34:01.276Z,4.90
2023-03-01T03:36:28.023Z,5.82
2023-03-01T03:38:54.781Z,4.53
2023-03-01T03:41:21.446Z,4.55
2023-03-01T03:43:48.049Z,5.78
2023-03-01T03:46:14.786Z,4.90
2023-03-01T03:48:44.751Z,5.07
2023-03-01T03:51:13.310Z,4.75
2023-03-01T03:53:39.940Z,5.20
2023-03-01T03:56:07.100Z,5.60
2023-03-01T03:58:34.061Z,5.72
2023-03-01T04:01:01.840Z,5.15
2023-03-01T04:03:30.720Z,5.00
2023-03-01T04:05:59.434Z,4.63
2023-03-01T04:08:26.582Z,5.22
2023-03-01T04:10:57.709Z,5.38
2023-03-01T04:13:26.182Z,5.50
2023-03-01T04:15:54.328Z,5.05
2023-03-01T04:18:22.713Z,4.60
2023-03-01T04:20:49.919Z,6.53
2023-03-01T04:23:22.647Z,6.35
2023-03-01T04:25:55.380Z,5.47
2023-03-01T04:28:27.487Z,4.32
2023-03-01T04:30:55.753Z,5.55
2023-03-01T04:33:23.012Z,4.47
2023-03-01T04:35:53.078Z,4.80
2023-03-01T04:38:20.957Z,5.68
2023-03-01T04:40:47.621Z,5.03
2023-03-01T04:43:15.656Z,5.07
2023-03-01T04:45:42.788Z,5.38
2023-03-01T04:48:09.699Z,5.70
2023-03-01T04:50:36.355Z,4.90
2023-03-01T04:53:03.396Z,4.90
2023-03-01T04:55:30.329Z,6.45
2023-03-01T04:57:57.144Z,5.38
2023-03-01T05:00:24.550Z,5.68
2023-03-01T05:02:54.566Z,5.25
2023-03-01T05:05:26.606Z,6.25
2023-03-01T05:07:58.923Z,6.32
2023-03-01T05:10:27.012Z,5.50
2023-03-01T05:12:54.031Z,6.03
2023-03-01T05:15:22.743Z,5.07
2023-03-01T05:17:50.685Z,6.72
2023-03-01T05:20:17.636Z,6.07
2023-03-01T05:22:44.422Z,5.57
2023-03-01T05:25:11.276Z,5.28
2023-03-01T05:27:37.876Z,7.07
2023-03-01T05:30:14.326Z,7.55
2023-03-01T05:32:46.148Z,7.28
2023-03-01T05:35:14.738Z,6.85
2023-03-01T05:37:43.292Z,6.75
2023-03-01T05:40:18.667Z,7.65
2023-03-01T05:42:55.725Z,8.98
2023-03-01T05:45:24.112Z,6.90
2023-03-01T05:47:51.601Z,5.88
2023-03-01T05:50:21.706Z,5.55
2023-03-01T05:52:53.322Z,4.82
2023-03-01T05:55:22.004Z,6.28
2023-03-01T05:57:49.473Z,9.63
2023-03-01T06:00:17.942Z,4.70
2023-03-01T06:02:45.039Z,5.45
2023-03-01T06:05:13.825Z,6.57
2023-03-01T06:07:41.129Z,5.38
2023-03-01T06:10:09.257Z,5.35
2023-03-01T06:12:37.659Z,5.00
2023-03-01T06:15:06.140Z,6.25
2023-03-01T06:17:38.541Z,5.93
2023-03-01T06:20:07.856Z,6.93
2023-03-01T06:22:34.542Z,7.00
2023-03-01T06:25:01.251Z,4.82
2023-03-01T06:27:27.996Z,5.93
2023-03-01T06:29:54.599Z,5.40
2023-03-01T06:32:21.283Z,5.82
2023-03-01T06:34:48.024Z,8.05
2023-03-01T06:37:14.562Z,8.43
2023-03-01T06:39:41.415Z,8.25
2023-03-01T06:42:09.475Z,7.05
2023-03-01T06:44:36.108Z,8.45
2023-03-01T06:47:03.088Z,7.43
2023-03-01T06:49:29.824Z,9.25
2023-03-01T06:51:56.631Z,7.40
2023-03-01T06:54:23.886Z,7.82
2023-03-01T06:56:51.119Z,7.28
2023-03-01T06:59:18.701Z,8.07
2023-03-01T07:01:45.483Z,7.55
2023-03-01T07:04:14.026Z,8.30
2023-03-01T07:06:41.623Z,8.40
2023-03-01T07:09:08.291Z,8.18
2023-03-01T07:11:34.921Z,6.80
2023-03-01T07:14:01.511Z,9.25
2023-03-01T07:16:28.211Z,9.10
2023-03-01T07:18:55.180Z,7.32
2023-03-01T07:21:21.885Z,8.13
2023-03-01T07:23:50.088Z,9.70
2023-03-01T07:26:16.816Z,8.93
2023-03-01T07:28:43.385Z,8.57
2023-03-01T07:31:09.968Z,8.10
2023-03-01T07:33:36.556Z,10.52
2023-03-01T07:36:05.039Z,10.65
2023-03-01T07:38:32.311Z,9.40
2023-03-01T07:41:03.798Z,9.60
2023-03-01T07:43:31.132Z,10.23
2023-03-01T07:46:01.871Z,9.55
2023-03-01T07:48:29.730Z,8.57
2023-03-01T07:50:59.871Z,9.20
2023-03-01T07:53:26.791Z,9.77
2023-03-01T07:56:07.811Z,10.50
2023-03-01T07:58:43.249Z,9.02
2023-03-01T08:01:12.562Z,11.45
2023-03-01T08:03:39.665Z,10.85
2023-03-01T08:06:08.950Z,10.10
2023-03-01T08:08:36.741Z,10.55
2023-03-01T08:11:05.894Z,9.50
2023-03-01T08:16:12.065Z,9.65
2023-03-01T08:18:39.051Z,11.35
2023-03-01T08:21:10.577Z,10.63
2023-03-01T08:23:37.597Z,10.43
2023-03-01T08:26:09.645Z,11.10
2023-03-01T08:28:36.876Z,10.27
2023-03-01T08:31:33.356Z,11.02
2023-03-01T08:34:02.206Z,10.68
2023-03-01T08:36:31.853Z,9.45
2023-03-01T08:38:59.302Z,11.00
2023-03-01T08:41:26.578Z,10.18
2023-03-01T08:43:53.968Z,9.95
2023-03-01T08:46:20.634Z,10.52
2023-03-01T08:48:47.349Z,10.55
2023-03-01T08:51:19.779Z,9.00
2023-03-01T08:53:47.344Z,10.50
2023-03-01T08:56:15.130Z,10.38
2023-03-01T08:58:48.893Z,11.82
2023-03-01T09:01:18.614Z,10.65
2023-03-01T09:03:45.920Z,11.82
2023-03-01T09:06:12.879Z,11.32
2023-03-01T09:08:42.223Z,11.30
2023-03-01T09:11:11.020Z,12.68
2023-03-01T09:13:38.378Z,12.55
2023-03-01T09:16:07.196Z,13.30
2023-03-01T09:18:34.631Z,12.02
2023-03-01T09:21:08.097Z,13.52
2023-03-01T09:23:37.497Z,15.63
2023-03-01T09:26:04.517Z,13.90
2023-03-01T09:28:31.097Z,11.13
2023-03-01T09:31:01.483Z,10.38
2023-03-01T09:33:29.567Z,11.43
2023-03-01T09:36:00.409Z,10.80
2023-03-01T09:38:27.568Z,10.07
2023-03-01T09:40:54.563Z,9.60
2023-03-01T09:43:36.125Z,10.45
2023-03-01T09:46:06.652Z,10.43
2023-03-01T09:48:42.867Z,10.55
2023-03-01T09:51:18.386Z,9.75
2023-03-01T09:53:44.998Z,11.13
2023-03-01T09:56:35.272Z,9.57
2023-03-01T09:59:16.851Z,10.70
2023-03-01T10:02:01.971Z,12.48
2023-03-01T10:04:48.764Z,11.48
2023-03-01T10:07:22.664Z,10.55
2023-03-01T10:09:49.663Z,9.27
2023-03-01T10:12:27.811Z,9.82
2023-03-01T10:15:01.428Z,9.52
2023-03-01T10:17:53.840Z,10.35
2023-03-01T10:20:27.264Z,9.38
2023-03-01T10:22:56.319Z,10.88
2023-03-01T10:25:47.610Z,7.32
2023-03-01T10:28:26.375Z,8.30
2023-03-01T10:30:54.034Z,8.35
2023-03-01T10:33:37.862Z,8.90
2023-03-01T10:36:05.013Z,8.52
2023-03-01T10:38:47.776Z,9.27
2023-03-01T10:41:14.373Z,7.82
2023-03-01T10:43:48.456Z,8.73
2023-03-01T10:46:36.063Z,8.27
2023-03-01T10:49:21.430Z,7.32
2023-03-01T10:51:50.875Z,7.85
2023-03-01T10:54:23.143Z,6.97
2023-03-01T10:56:53.751Z,7.28
2023-03-01T10:59:35.250Z,6.00
2023-03-01T11:02:12.129Z,8.40
2023-03-01T11:04:59.817Z,7.28
2023-03-01T11:07:27.193Z,6.95
2023-03-01T11:09:53.971Z,6.32
2023-03-01T11:12:22.377Z,6.38
2023-03-01T11:14:55.054Z,7.93
2023-03-01T11:17:30.667Z,7.45
2023-03-01T11:20:13.590Z,7.40
2023-03-01T11:22:53.350Z,6.47
2023-03-01T11:25:25.493Z,6.95
2023-03-01T11:27:53.692Z,7.57
2023-03-01T11:30:26.432Z,7.80
2023-03-01T11:33:11.597Z,7.47
2023-03-01T11:36:05.216Z,6.30
2023-03-01T11:38:35.141Z,7.32
2023-03-01T11:41:11.238Z,8.38
2023-03-01T11:43:49.940Z,7.95
2023-03-01T11:46:38.415Z,7.13
2023-03-01T11:49:32.798Z,8.52
2023-03-01T11:52:40.304Z,9.43
2023-03-01T11:55:20.385Z,7.57
2023-03-01T11:57:55.895Z,11.60
2023-03-01T12:00:49.951Z,9.57
2023-03-01T12:03:41.465Z,9.40
2023-03-01T12:06:32.458Z,8.02
2023-03-01T12:09:33.043Z,8.10
2023-03-01T12:12:41.869Z,5.60
2023-03-01T12:15:29.791Z,5.15
2023-03-01T12:18:09.523Z,4.03
2023-03-01T12:20:51.970Z,3.72
2023-03-01T12:23:46.576Z,3.58
2023-03-01T12:26:15.881Z,3.75
2023-03-01T12:29:03.585Z,2.90
2023-03-01T12:31:42.400Z,3.65
2023-03-01T12:34:29.954Z,3.35
2023-03-01T12:37:06.474Z,3.22
2023-03-01T12:39:43.425Z,2.95
2023-03-01T12:42:28.261Z,3.35
2023-03-01T12:44:56.479Z,4.68
2023-03-01T12:47:50.129Z,2.70
2023-03-01T12:50:25.641Z,4.15
2023-03-01T12:52:59.040Z,3.90
2023-03-01T12:55:32.261Z,4.20
2023-03-01T12:58:01.538Z,3.13
2023-03-01T13:00:52.024Z,3.78
2023-03-01T13:03:37.079Z,3.55
2023-03-01T13:06:17.858Z,3.58
2023-03-01T13:08:54.163Z,3.22
2023-03-01T13:11:23.033Z,3.47
2023-03-01T13:13:52.507Z,3.50
2023-03-01T13:16:31.477Z,2.75
2023-03-01T13:19:24.517Z,3.35
2023-03-01T13:21:55.226Z,3.22
2023-03-01T13:24:38.624Z,3.05
2023-03-01T13:27:08.074Z,2.78
2023-03-01T13:29:56.246Z,3.72
2023-03-01T13:32:43.453Z,3.70
2023-03-01T13:35:20.438Z,3.92
2023-03-01T13:37:47.395Z,3.85
2023-03-01T13:40:17.672Z,3.67
2023-03-01T13:42:56.297Z,4.22
2023-03-01T13:45:56.261Z,3.33
2023-03-01T13:48:33.813Z,2.72
2023-03-01T13:51:04.167Z,3.45
2023-03-01T13:53:35.137Z,3.38
2023-03-01T13:56:37.195Z,4.65
2023-03-01T13:59:23.315Z,4.28
2023-03-01T14:01:56.354Z,4.00
2023-03-01T14:04:29.466Z,3.03
2023-03-01T14:07:19.635Z,3.35
2023-03-01T14:09:50.206Z,2.92
2023-03-01T14:12:52.206Z,4.30
2023-03-01T14:15:40.561Z,3.45
2023-03-01T14:18:27.996Z,4.07
2023-03-01T14:20:54.631Z,3.53
2023-03-01T14:23:23.962Z,2.60
2023-03-01T14:25:52.222Z,3.42
2023-03-01T14:28:20.833Z,3.77
2023-03-01T14:30:50.419Z,4.63
2023-03-01T14:33:20.726Z,2.75
2023-03-01T14:36:02.193Z,3.45
2023-03-01T14:38:39.281Z,3.80
2023-03-01T14:41:12.362Z,2.97
2023-03-01T14:43:42.306Z,4.13
2023-03-01T14:46:22.249Z,3.03
2023-03-01T14:48:54.041Z,2.85
2023-03-01T14:51:20.913Z,3.13
2023-03-01T14:53:51.214Z,2.17
2023-03-01T14:56:18.887Z,3.97
2023-03-01T14:58:45.622Z,3.22
2023-03-01T15:01:16.117Z,3.83
2023-03-01T15:03:44.813Z,3.67
2023-03-01T15:06:15.332Z,3.22
2023-03-01T15:08:51.730Z,3.28
2023-03-01T15:11:23.892Z,4.38
2023-03-01T15:13:50.661Z,4.93
2023-03-01T15:16:22.539Z,4.68
2023-03-01T15:18:56.098Z,5.53
2023-03-01T15:21:28.090Z,4.65
2023-03-01T15:23:58.512Z,4.10
2023-03-01T15:26:30.008Z,5.78
2023-03-01T15:28:59.169Z,5.03
2023-03-01T15:31:36.317Z,5.78
2023-03-01T15:34:30.936Z,5.90
2023-03-01T15:37:01.028Z,7.00
2023-03-01T15:39:53.671Z,5.55
2023-03-01T15:42:26.398Z,5.72
2023-03-01T15:45:10.173Z,5.20
2023-03-01T15:47:39.966Z,5.68
2023-03-01T15:50:17.205Z,4.38
2023-03-01T15:52:44.168Z,5.20
2023-03-01T15:55:24.389Z,5.00
2023-03-01T15:57:59.815Z,5.20
2023-03-01T16:00:26.463Z,4.30
2023-03-01T16:02:53.206Z,4.38
2023-03-01T16:05:24.597Z,4.45
2023-03-01T16:07:52.666Z,4.47
2023-03-01T16:59:46.759Z,9.32
2023-03-01T17:02:15.779Z,8.65
2023-03-01T17:04:42.318Z,7.80
2023-03-01T17:07:08.860Z,7.97
2023-03-01T17:09:37.668Z,7.60
2023-03-01T17:12:05.525Z,8.85
2023-03-01T17:14:32.160Z,7.90
2023-03-01T17:17:00.912Z,5.05
2023-03-01T17:19:27.674Z,4.18
2023-03-01T17:21:54.278Z,4.55
2023-03-01T17:24:20.855Z,4.18
2023-03-01T17:26:47.581Z,3.97
2023-03-01T17:29:14.167Z,4.50
2023-03-01T17:31:40.826Z,4.18
2023-03-01T17:34:08.151Z,3.97
2023-03-01T17:36:41.711Z,4.50
2023-03-01T17:39:08.244Z,4.55
2023-03-01T17:41:34.878Z,4.50
2023-03-01T17:44:01.713Z,5.18
2023-03-01T17:46:28.768Z,4.70
2023-03-01T17:48:55.537Z,4.13
2023-03-01T17:51:22.131Z,3.92
2023-03-01T17:53:48.633Z,4.15
2023-03-01T17:56:16.222Z,4.60
2023-03-01T17:58:42.787Z,4.88
2023-03-01T18:01:18.660Z,3.55
2023-03-01T18:03:47.568Z,3.20
2023-03-01T18:06:23.544Z,5.78
2023-03-01T18:08:50.771Z,3.40
2023-03-01T18:11:18.954Z,4.80
2023-03-01T18:13:45.899Z,3.85
2023-03-01T18:16:17.574Z,3.53
2023-03-01T18:18:47.218Z,4.80
2023-03-01T18:21:14.690Z,3.63
2023-03-01T18:23:42.019Z,3.50
2023-03-01T18:26:11.586Z,3.88
2023-03-01T18:28:42.179Z,3.33
2023-03-01T18:31:13.147Z,4.80
2023-03-01T18:33:40.968Z,4.35
2023-03-01T18:36:18.057Z,4.75
2023-03-01T18:38:44.888Z,4.32
2023-03-01T18:41:11.529Z,3.33
2023-03-01T18:43:38.161Z,2.92
2023-03-01T18:46:05.369Z,3.63
2023-03-01T18:48:32.152Z,5.00
2023-03-01T18:51:06.807Z,3.75
2023-03-01T18:53:33.373Z,3.45
2023-03-01T18:56:01.272Z,3.75
2023-03-01T18:58:28.273Z,4.20
2023-03-01T19:00:54.772Z,4.03
2023-03-01T19:03:21.370Z,3.90
2023-03-01T19:05:47.945Z,4.65
2023-03-01T19:08:14.550Z,5.40
2023-03-01T19:10:41.201Z,4.20
2023-03-01T19:13:07.820Z,5.03
2023-03-01T19:15:36.588Z,2.97
2023-03-01T19:18:05.541Z,3.67
2023-03-01T19:20:32.100Z,4.25
2023-03-01T19:22:58.585Z,4.75
2023-03-01T19:25:25.160Z,5.53
2023-03-01T19:27:52.796Z,4.10
2023-03-01T19:30:19.440Z,3.03
2023-03-01T19:32:45.996Z,4.55
2023-03-01T19:35:12.554Z,5.35
2023-03-01T19:37:42.857Z,3.28
2023-03-01T19:40:10.170Z,3.78
2023-03-01T19:42:36.693Z,4.07
2023-03-01T19:45:03.842Z,3.53
2023-03-01T19:47:34.765Z,2.85
2023-03-01T19:50:01.281Z,2.75
2023-03-01T19:52:30.534Z,3.33
2023-03-01T19:55:09.040Z,3.50
2023-03-01T19:57:36.451Z,2.45
2023-03-01T20:00:04.299Z,3.13
2023-03-01T20:02:31.892Z,2.90
2023-03-01T20:04:58.483Z,2.97
2023-03-01T20:07:25.348Z,2.92
2023-03-01T20:09:58.070Z,2.15
2023-03-01T20:12:24.929Z,2.47
2023-03-01T20:14:56.981Z,2.20
2023-03-01T20:17:26.444Z,3.10
2023-03-01T20:19:53.019Z,2.88
2023-03-01T20:22:19.794Z,2.55
2023-03-01T20:24:46.355Z,2.70
2023-03-01T20:27:12.897Z,2.97
2023-03-01T20:29:39.578Z,3.47
2023-03-01T20:32:06.276Z,3.33
2023-03-01T20:34:33.211Z,3.78
2023-03-01T20:37:02.944Z,3.10
2023-03-01T20:39:29.861Z,7.03
2023-03-01T20:41:56.516Z,1.90
2023-03-01T20:44:23.012Z,3.03
2023-03-01T20:46:50.842Z,2.50
2023-03-01T20:49:19.024Z,2.78
2023-03-01T20:51:45.584Z,2.80
2023-03-01T20:54:17.924Z,2.60
2023-03-01T20:56:44.585Z,2.80
2023-03-01T20:59:13.039Z,2.55
2023-03-01T21:01:40.163Z,2.00
2023-03-01T21:04:07.539Z,2.13
2023-03-01T21:06:34.831Z,1.67
2023-03-01T21:09:03.391Z,2.22
2023-03-01T21:11:33.206Z,2.23
2023-03-01T21:13:59.874Z,2.20
2023-03-01T21:16:27.058Z,2.67
2023-03-01T21:18:56.589Z,2.63
2023-03-01T21:21:24.060Z,2.50
2023-03-01T21:23:51.281Z,2.33
2023-03-01T21:26:20.726Z,4.07
2023-03-01T21:28:48.507Z,2.92
2023-03-01T21:31:22.463Z,2.50
2023-03-01T21:33:52.143Z,2.45
2023-03-01T21:36:19.744Z,2.78
2023-03-01T21:38:47.902Z,2.95
2023-03-01T21:41:26.705Z,3.15
2023-03-01T21:43:57.515Z,3.40
2023-03-01T21:46:25.755Z,2.00
2023-03-01T21:48:53.665Z,2.67
2023-03-01T21:51:21.762Z,2.65
2023-03-01T21:53:48.440Z,1.95
2023-03-01T21:56:26.996Z,2.17
2023-03-01T21:58:54.491Z,2.78
2023-03-01T22:01:30.134Z,3.25
2023-03-01T22:03:58.228Z,2.88
2023-03-01T22:06:29.532Z,2.90
2023-03-01T22:09:01.646Z,3.72
2023-03-01T22:11:28.416Z,3.58
2023-03-01T22:13:56.333Z,2.83
2023-03-01T22:16:26.227Z,3.25
2023-03-01T22:18:53.632Z,2.38
2023-03-01T22:21:21.633Z,2.55
2023-03-01T22:23:48.348Z,2.30
2023-03-01T22:26:25.403Z,2.83
2023-03-01T22:28:52.974Z,2.55
2023-03-01T22:31:19.742Z,2.80
2023-03-01T22:33:46.458Z,2.42
2023-03-01T22:36:13.314Z,2.67
2023-03-01T22:38:39.939Z,2.75
2023-03-01T22:41:08.689Z,2.42
2023-03-01T22:43:36.254Z,2.00
2023-03-01T22:46:11.904Z,2.03
2023-03-01T22:48:38.604Z,2.22
2023-03-01T22:51:05.583Z,2.80
2023-03-01T22:53:32.224Z,2.30
2023-03-01T22:55:59.739Z,2.30
2023-03-01T22:58:26.351Z,2.00
2023-03-01T23:00:52.907Z,2.60
2023-03-01T23:03:19.621Z,2.33
2023-03-01T23:05:46.318Z,2.20
2023-03-01T23:08:13.452Z,2.08
2023-03-01T23:10:42.358Z,2.10
2023-03-01T23:13:08.935Z,2.30
2023-03-01T23:15:35.698Z,2.05
2023-03-01T23:18:02.626Z,2.63
2023-03-01T23:20:29.218Z,2.33
2023-03-01T23:23:01.472Z,1.77
2023-03-01T23:25:28.598Z,1.98
2023-03-01T23:27:55.701Z,1.92
2023-03-01T23:30:22.524Z,1.98
2023-03-01T23:32:49.297Z,1.95
2023-03-01T23:35:16.031Z,1.80
2023-03-01T23:37:42.663Z,1.58
2023-03-01T23:40:10.319Z,1.88
2023-03-01T23:42:36.938Z,1.90
2023-03-01T23:45:03.604Z,1.70
2023-03-01T23:47:30.194Z,1.65
2023-03-01T23:49:57.444Z,1.40
2023-03-01T23:52:24.524Z,1.83
2023-03-01T23:54:51.880Z,2.08
2023-03-01T23:57:19.096Z,1.90
2023-03-01T23:59:45.888Z,1.45
